sensor_id;sensor_type;location;lat;lon;timestamp;temperature;humidity
816;DHT22;25928;51.062;13.752;2023-03-03T00:00:43;3.50;1.00
816;DHT22;25928;51.062;13.752;2023-03-03T00:03:10;3.50;1.00
816;DHT22;25928;51.062;13.752;2023-03-03T00:05:38;3.50;1.00
816;DHT22;25928;51.062;13.752;2023-03-03T00:08:04;3.40;1.00
816;DHT22;25928;51.062;13.752;2023-03-03T00:10:30;3.40;1.00
816;DHT22;25928;51.062;13.752;2023-03-03T00:12:56;3.50;1.00
816;DHT22;25928;51.062;13.752;2023-03-03T00:15:24;3.50;1.00
816;DHT22;25928;51.062;13.752;2023-03-03T00:17:50;3.50;1.00
816;DHT22;25928;51.062;13.752;2023-03-03T00:20:28;3.60;1.00
816;DHT22;25928;51.062;13.752;2023-03-03T00:22:54;3.70;1.00
816;DHT22;25928;51.062;13.752;2023-03-03T00:25:30;3.80;1.00
816;DHT22;25928;51.062;13.752;2023-03-03T00:28:15;3.80;1.00
816;DHT22;25928;51.062;13.752;2023-03-03T00:30:43;3.70;1.00
816;DHT22;25928;51.062;13.752;2023-03-03T00:33:31;3.70;1.00
816;DHT22;25928;51.062;13.752;2023-03-03T00:38:46;3.60;1.00
816;DHT22;25928;51.062;13.752;2023-03-03T00:41:26;3.70;1.00
816;DHT22;25928;51.062;13.752;2023-03-03T00:43:52;3.80;1.00
816;DHT22;25928;51.062;13.752;2023-03-03T00:46:21;3.80;1.00
816;DHT22;25928;51.062;13.752;2023-03-03T00:48:48;3.70;1.00
816;DHT22;25928;51.062;13.752;2023-03-03T00:51:31;3.60;1.00
816;DHT22;25928;51.062;13.752;2023-03-03T00:53:58;3.50;1.00
816;DHT22;25928;51.062;13.752;2023-03-03T00:56:24;3.30;1.00
816;DHT22;25928;51.062;13.752;2023-03-03T00:58:50;3.10;1.00
816;DHT22;25928;51.062;13.752;2023-03-03T01:01:16;3.10;1.00
816;DHT22;25928;51.062;13.752;2023-03-03T01:03:42;3.10;1.00
816;DHT22;25928;51.062;13.752;2023-03-03T01:06:09;3.10;1.00
816;DHT22;25928;51.062;13.752;2023-03-03T01:08:36;3.20;1.00
816;DHT22;25928;51.062;13.752;2023-03-03T01:11:08;3.30;1.00
816;DHT22;25928;51.062;13.752;2023-03-03T01:13:37;3.30;1.00
816;DHT22;25928;51.062;13.752;2023-03-03T01:16:04;3.20;1.00
816;DHT22;25928;51.062;13.752;2023-03-03T01:18:31;3.30;1.00
816;DHT22;25928;51.062;13.752;2023-03-03T01:20:57;3.30;1.00
816;DHT22;25928;51.062;13.752;2023-03-03T01:23:22;3.60;1.00
816;DHT22;25928;51.062;13.752;2023-03-03T01:25:48;3.20;1.00
816;DHT22;25928;51.062;13.752;2023-03-03T01:28:14;3.00;1.00
816;DHT22;25928;51.062;13.752;2023-03-03T01:30:39;2.90;1.00
816;DHT22;25928;51.062;13.752;2023-03-03T01:33:05;2.90;1.00
816;DHT22;25928;51.062;13.752;2023-03-03T01:35:31;3.00;1.00
816;DHT22;25928;51.062;13.752;2023-03-03T01:37:57;3.10;1.00
816;DHT22;25928;51.062;13.752;2023-03-03T01:40:26;3.00;1.00
816;DHT22;25928;51.062;13.752;2023-03-03T01:42:52;3.00;1.00
816;DHT22;25928;51.062;13.752;2023-03-03T01:45:23;3.00;1.00
816;DHT22;25928;51.062;13.752;2023-03-03T01:48:00;3.00;1.00
816;DHT22;25928;51.062;13.752;2023-03-03T01:50:38;3.00;1.00
816;DHT22;25928;51.062;13.752;2023-03-03T01:53:11;3.00;1.00
816;DHT22;25928;51.062;13.752;2023-03-03T01:55:39;3.00;1.00
816;DHT22;25928;51.062;13.752;2023-03-03T01:58:18;3.10;1.00
816;DHT22;25928;51.062;13.752;2023-03-03T02:00:49;3.00;1.00
816;DHT22;25928;51.062;13.752;2023-03-03T02:03:18;2.90;1.00
816;DHT22;25928;51.062;13.752;2023-03-03T02:05:44;2.80;1.00
816;DHT22;25928;51.062;13.752;2023-03-03T02:08:11;2.60;1.00
816;DHT22;25928;51.062;13.752;2023-03-03T02:10:40;2.60;1.00
816;DHT22;25928;51.062;13.752;2023-03-03T02:13:07;2.50;1.00
816;DHT22;25928;51.062;13.752;2023-03-03T02:15:34;2.40;1.00
816;DHT22;25928;51.062;13.752;2023-03-03T02:18:06;2.40;1.00
816;DHT22;25928;51.062;13.752;2023-03-03T02:20:50;2.30;1.00
816;DHT22;25928;51.062;13.752;2023-03-03T02:26:06;2.20;1.00
816;DHT22;25928;51.062;13.752;2023-03-03T02:28:33;2.10;1.00
816;DHT22;25928;51.062;13.752;2023-03-03T02:31:00;2.10;1.00
816;DHT22;25928;51.062;13.752;2023-03-03T02:33:27;2.20;1.00
816;DHT22;25928;51.062;13.752;2023-03-03T02:35:56;2.30;1.00
816;DHT22;25928;51.062;13.752;2023-03-03T02:43:29;2.00;1.00
816;DHT22;25928;51.062;13.752;2023-03-03T02:45:56;1.90;1.00
816;DHT22;25928;51.062;13.752;2023-03-03T02:48:22;2.10;1.00
816;DHT22;25928;51.062;13.752;2023-03-03T02:50:47;2.10;1.00
816;DHT22;25928;51.062;13.752;2023-03-03T02:53:13;2.10;1.00
816;DHT22;25928;51.062;13.752;2023-03-03T02:55:39;2.20;1.00
816;DHT22;25928;51.062;13.752;2023-03-03T02:58:04;2.20;1.00
816;DHT22;25928;51.062;13.752;2023-03-03T03:00:30;2.30;1.00
816;DHT22;25928;51.062;13.752;2023-03-03T03:02:56;2.40;1.00
816;DHT22;25928;51.062;13.752;2023-03-03T03:05:23;2.30;1.00
816;DHT22;25928;51.062;13.752;2023-03-03T03:07:49;2.10;1.00
816;DHT22;25928;51.062;13.752;2023-03-03T03:10:14;2.00;1.00
816;DHT22;25928;51.062;13.752;2023-03-03T03:12:40;2.00;1.00
816;DHT22;25928;51.062;13.752;2023-03-03T03:15:06;1.90;1.00
816;DHT22;25928;51.062;13.752;2023-03-03T03:17:35;1.80;1.00
816;DHT22;25928;51.062;13.752;2023-03-03T03:20:01;1.90;1.00
816;DHT22;25928;51.062;13.752;2023-03-03T03:22:27;2.00;1.00
816;DHT22;25928;51.062;13.752;2023-03-03T03:24:52;2.00;1.00
816;DHT22;25928;51.062;13.752;2023-03-03T03:27:18;2.00;1.00
816;DHT22;25928;51.062;13.752;2023-03-03T03:29:44;2.00;1.00
816;DHT22;25928;51.062;13.752;2023-03-03T03:32:09;2.00;1.00
816;DHT22;25928;51.062;13.752;2023-03-03T03:34:37;2.00;1.00
816;DHT22;25928;51.062;13.752;2023-03-03T03:37:02;1.90;1.00
816;DHT22;25928;51.062;13.752;2023-03-03T03:39:28;1.90;1.00
816;DHT22;25928;51.062;13.752;2023-03-03T03:41:54;2.00;1.00
816;DHT22;25928;51.062;13.752;2023-03-03T03:44:19;2.10;1.00
816;DHT22;25928;51.062;13.752;2023-03-03T03:46:45;2.20;1.00
816;DHT22;25928;51.062;13.752;2023-03-03T03:49:10;2.10;1.00
816;DHT22;25928;51.062;13.752;2023-03-03T03:51:36;2.20;1.00
816;DHT22;25928;51.062;13.752;2023-03-03T03:54:05;2.30;1.00
816;DHT22;25928;51.062;13.752;2023-03-03T03:56:31;2.20;1.00
816;DHT22;25928;51.062;13.752;2023-03-03T03:58:57;2.20;1.00
816;DHT22;25928;51.062;13.752;2023-03-03T04:01:22;2.20;1.00
816;DHT22;25928;51.062;13.752;2023-03-03T04:03:48;2.20;1.00
816;DHT22;25928;51.062;13.752;2023-03-03T04:06:14;2.20;1.00
816;DHT22;25928;51.062;13.752;2023-03-03T04:08:39;2.20;1.00
816;DHT22;25928;51.062;13.752;2023-03-03T04:11:05;2.00;1.00
816;DHT22;25928;51.062;13.752;2023-03-03T04:13:30;2.20;1.00
816;DHT22;25928;51.062;13.752;2023-03-03T04:16:02;2.10;1.00
816;DHT22;25928;51.062;13.752;2023-03-03T04:18:28;1.90;1.00
816;DHT22;25928;51.062;13.752;2023-03-03T04:20:53;1.80;1.00
816;DHT22;25928;51.062;13.752;2023-03-03T04:23:20;1.80;1.00
816;DHT22;25928;51.062;13.752;2023-03-03T04:25:46;1.80;1.00
816;DHT22;25928;51.062;13.752;2023-03-03T04:28:13;1.90;1.00
816;DHT22;25928;51.062;13.752;2023-03-03T04:30:39;1.80;1.00
816;DHT22;25928;51.062;13.752;2023-03-03T04:33:04;1.80;1.00
816;DHT22;25928;51.062;13.752;2023-03-03T04:35:30;1.80;1.00
816;DHT22;25928;51.062;13.752;2023-03-03T04:37:56;1.80;1.00
816;DHT22;25928;51.062;13.752;2023-03-03T04:40:22;1.80;1.00
816;DHT22;25928;51.062;13.752;2023-03-03T04:42:47;1.90;1.00
816;DHT22;25928;51.062;13.752;2023-03-03T04:45:13;2.00;1.00
816;DHT22;25928;51.062;13.752;2023-03-03T04:47:39;1.80;1.00
816;DHT22;25928;51.062;13.752;2023-03-03T04:50:05;1.80;1.00
816;DHT22;25928;51.062;13.752;2023-03-03T04:52:31;1.80;1.00
816;DHT22;25928;51.062;13.752;2023-03-03T04:54:57;1.90;1.00
816;DHT22;25928;51.062;13.752;2023-03-03T04:57:23;2.00;1.00
816;DHT22;25928;51.062;13.752;2023-03-03T04:59:48;2.00;1.00
816;DHT22;25928;51.062;13.752;2023-03-03T05:02:14;2.00;1.00
816;DHT22;25928;51.062;13.752;2023-03-03T05:04:39;2.10;1.00
816;DHT22;25928;51.062;13.752;2023-03-03T05:07:05;2.00;1.00
816;DHT22;25928;51.062;13.752;2023-03-03T05:09:31;2.00;1.00
816;DHT22;25928;51.062;13.752;2023-03-03T05:11:56;2.30;1.00
816;DHT22;25928;51.062;13.752;2023-03-03T05:14:22;2.10;1.00
816;DHT22;25928;51.062;13.752;2023-03-03T05:16:48;2.20;1.00
816;DHT22;25928;51.062;13.752;2023-03-03T05:19:13;2.20;1.00
816;DHT22;25928;51.062;13.752;2023-03-03T05:21:39;2.30;1.00
816;DHT22;25928;51.062;13.752;2023-03-03T05:24:09;2.40;1.00
816;DHT22;25928;51.062;13.752;2023-03-03T05:26:34;2.40;1.00
816;DHT22;25928;51.062;13.752;2023-03-03T05:29:00;2.30;1.00
816;DHT22;25928;51.062;13.752;2023-03-03T05:31:26;2.30;1.00
816;DHT22;25928;51.062;13.752;2023-03-03T05:33:52;2.10;1.00
816;DHT22;25928;51.062;13.752;2023-03-03T05:36:19;2.20;1.00
816;DHT22;25928;51.062;13.752;2023-03-03T05:38:44;2.20;1.00
816;DHT22;25928;51.062;13.752;2023-03-03T05:41:10;2.00;1.00
816;DHT22;25928;51.062;13.752;2023-03-03T05:43:35;2.00;1.00
816;DHT22;25928;51.062;13.752;2023-03-03T05:46:02;2.20;1.00
816;DHT22;25928;51.062;13.752;2023-03-03T05:48:28;2.30;1.00
816;DHT22;25928;51.062;13.752;2023-03-03T05:50:56;2.20;1.00
816;DHT22;25928;51.062;13.752;2023-03-03T05:53:22;2.00;1.00
816;DHT22;25928;51.062;13.752;2023-03-03T05:55:47;2.10;1.00
816;DHT22;25928;51.062;13.752;2023-03-03T05:58:13;2.10;1.00
816;DHT22;25928;51.062;13.752;2023-03-03T06:00:39;2.10;1.00
816;DHT22;25928;51.062;13.752;2023-03-03T06:03:05;2.20;1.00
816;DHT22;25928;51.062;13.752;2023-03-03T06:05:30;2.10;1.00
816;DHT22;25928;51.062;13.752;2023-03-03T06:07:56;2.10;1.00
816;DHT22;25928;51.062;13.752;2023-03-03T06:10:21;2.10;1.00
816;DHT22;25928;51.062;13.752;2023-03-03T06:12:47;2.20;1.00
816;DHT22;25928;51.062;13.752;2023-03-03T06:15:13;2.10;1.00
816;DHT22;25928;51.062;13.752;2023-03-03T06:17:38;2.10;1.00
816;DHT22;25928;51.062;13.752;2023-03-03T06:20:05;2.30;1.00
816;DHT22;25928;51.062;13.752;2023-03-03T06:22:31;2.30;1.00
816;DHT22;25928;51.062;13.752;2023-03-03T06:24:57;2.40;1.00
816;DHT22;25928;51.062;13.752;2023-03-03T06:27:23;2.40;1.00
816;DHT22;25928;51.062;13.752;2023-03-03T06:29:48;2.30;1.00
816;DHT22;25928;51.062;13.752;2023-03-03T06:32:14;2.30;1.00
816;DHT22;25928;51.062;13.752;2023-03-03T06:34:39;2.30;1.00
816;DHT22;25928;51.062;13.752;2023-03-03T06:40:27;2.30;1.00
816;DHT22;25928;51.062;13.752;2023-03-03T06:42:53;2.00;1.00
816;DHT22;25928;51.062;13.752;2023-03-03T06:45:18;2.20;1.00
816;DHT22;25928;51.062;13.752;2023-03-03T06:47:44;2.10;1.00
816;DHT22;25928;51.062;13.752;2023-03-03T06:50:11;2.20;1.00
816;DHT22;25928;51.062;13.752;2023-03-03T06:52:37;2.20;1.00
816;DHT22;25928;51.062;13.752;2023-03-03T06:55:11;2.30;1.00
816;DHT22;25928;51.062;13.752;2023-03-03T06:57:38;2.30;1.00
816;DHT22;25928;51.062;13.752;2023-03-03T07:00:22;2.30;1.00
816;DHT22;25928;51.062;13.752;2023-03-03T07:02:58;2.30;1.00
816;DHT22;25928;51.062;13.752;2023-03-03T07:05:25;2.30;1.00
816;DHT22;25928;51.062;13.752;2023-03-03T07:07:54;2.30;1.00
816;DHT22;25928;51.062;13.752;2023-03-03T07:10:26;2.30;1.00
816;DHT22;25928;51.062;13.752;2023-03-03T07:12:52;2.40;1.00
816;DHT22;25928;51.062;13.752;2023-03-03T07:15:23;2.40;1.00
816;DHT22;25928;51.062;13.752;2023-03-03T07:17:54;3.40;1.00
816;DHT22;25928;51.062;13.752;2023-03-03T07:20:35;2.60;1.00
816;DHT22;25928;51.062;13.752;2023-03-03T07:23:18;2.70;1.00
816;DHT22;25928;51.062;13.752;2023-03-03T07:25:45;2.70;1.00
816;DHT22;25928;51.062;13.752;2023-03-03T07:30:41;2.60;1.00
816;DHT22;25928;51.062;13.752;2023-03-03T07:33:41;2.60;1.00
816;DHT22;25928;51.062;13.752;2023-03-03T07:36:01;2.70;1.00
816;DHT22;25928;51.062;13.752;2023-03-03T07:38:29;2.80;1.00
816;DHT22;25928;51.062;13.752;2023-03-03T07:40:58;2.80;1.00
816;DHT22;25928;51.062;13.752;2023-03-03T07:43:37;2.80;1.00
816;DHT22;25928;51.062;13.752;2023-03-03T07:51:17;2.80;1.00
816;DHT22;25928;51.062;13.752;2023-03-03T07:53:43;2.70;1.00
816;DHT22;25928;51.062;13.752;2023-03-03T07:56:27;2.70;1.00
816;DHT22;25928;51.062;13.752;2023-03-03T07:58:54;2.80;1.00
816;DHT22;25928;51.062;13.752;2023-03-03T08:01:42;2.50;1.00
816;DHT22;25928;51.062;13.752;2023-03-03T08:04:33;2.70;1.00
816;DHT22;25928;51.062;13.752;2023-03-03T08:07:08;2.70;1.00
816;DHT22;25928;51.062;13.752;2023-03-03T08:09:38;2.70;1.00
816;DHT22;25928;51.062;13.752;2023-03-03T08:14:36;2.50;1.00
816;DHT22;25928;51.062;13.752;2023-03-03T08:19:38;2.80;1.00
816;DHT22;25928;51.062;13.752;2023-03-03T08:22:18;2.90;1.00
816;DHT22;25928;51.062;13.752;2023-03-03T08:24:48;2.90;1.00
816;DHT22;25928;51.062;13.752;2023-03-03T08:27:14;2.80;1.00
816;DHT22;25928;51.062;13.752;2023-03-03T08:29:39;2.80;1.00
816;DHT22;25928;51.062;13.752;2023-03-03T08:32:05;2.50;1.00
816;DHT22;25928;51.062;13.752;2023-03-03T08:34:30;2.60;1.00
816;DHT22;25928;51.062;13.752;2023-03-03T08:36:56;2.50;1.00
816;DHT22;25928;51.062;13.752;2023-03-03T08:39:23;2.60;1.00
816;DHT22;25928;51.062;13.752;2023-03-03T08:41:48;2.70;1.00
816;DHT22;25928;51.062;13.752;2023-03-03T08:44:14;2.50;1.00
816;DHT22;25928;51.062;13.752;2023-03-03T08:46:40;2.60;1.00
816;DHT22;25928;51.062;13.752;2023-03-03T08:49:05;2.60;1.00
816;DHT22;25928;51.062;13.752;2023-03-03T08:51:31;2.80;1.00
816;DHT22;25928;51.062;13.752;2023-03-03T08:53:59;2.90;1.00
816;DHT22;25928;51.062;13.752;2023-03-03T08:56:24;3.00;1.00
816;DHT22;25928;51.062;13.752;2023-03-03T08:58:50;3.20;1.00
816;DHT22;25928;51.062;13.752;2023-03-03T09:01:16;3.40;1.00
816;DHT22;25928;51.062;13.752;2023-03-03T09:03:42;3.30;1.00
816;DHT22;25928;51.062;13.752;2023-03-03T09:06:08;3.30;1.00
816;DHT22;25928;51.062;13.752;2023-03-03T09:08:34;3.10;1.00
816;DHT22;25928;51.062;13.752;2023-03-03T09:11:00;3.20;1.00
816;DHT22;25928;51.062;13.752;2023-03-03T09:13:29;3.30;1.00
816;DHT22;25928;51.062;13.752;2023-03-03T09:15:56;3.40;1.00
816;DHT22;25928;51.062;13.752;2023-03-03T09:18:31;3.50;1.00
816;DHT22;25928;51.062;13.752;2023-03-03T09:20:59;3.50;1.00
816;DHT22;25928;51.062;13.752;2023-03-03T09:23:30;3.50;1.00
816;DHT22;25928;51.062;13.752;2023-03-03T09:28:38;3.40;1.00
816;DHT22;25928;51.062;13.752;2023-03-03T09:31:21;3.50;1.00
816;DHT22;25928;51.062;13.752;2023-03-03T09:33:48;3.40;1.00
816;DHT22;25928;51.062;13.752;2023-03-03T09:36:28;3.30;1.00
816;DHT22;25928;51.062;13.752;2023-03-03T09:38:55;3.10;1.00
816;DHT22;25928;51.062;13.752;2023-03-03T09:41:48;3.00;1.00
816;DHT22;25928;51.062;13.752;2023-03-03T09:52:29;2.80;1.00
816;DHT22;25928;51.062;13.752;2023-03-03T09:58:32;2.70;1.00
816;DHT22;25928;51.062;13.752;2023-03-03T10:01:35;2.80;1.00
816;DHT22;25928;51.062;13.752;2023-03-03T10:12:24;3.00;1.00
816;DHT22;25928;51.062;13.752;2023-03-03T10:22:58;3.60;1.00
816;DHT22;25928;51.062;13.752;2023-03-03T10:25:52;3.50;1.00
816;DHT22;25928;51.062;13.752;2023-03-03T11:00:51;3.30;1.00
816;DHT22;25928;51.062;13.752;2023-03-03T11:03:42;3.30;1.00
816;DHT22;25928;51.062;13.752;2023-03-03T11:11:56;3.30;1.00
816;DHT22;25928;51.062;13.752;2023-03-03T11:20:36;3.60;1.00
816;DHT22;25928;51.062;13.752;2023-03-03T11:25:53;3.30;1.00
816;DHT22;25928;51.062;13.752;2023-03-03T11:36:27;5.30;1.00
816;DHT22;25928;51.062;13.752;2023-03-03T11:44:21;3.30;1.00
816;DHT22;25928;51.062;13.752;2023-03-03T11:46:52;3.50;1.00
816;DHT22;25928;51.062;13.752;2023-03-03T11:49:40;3.60;1.00
816;DHT22;25928;51.062;13.752;2023-03-03T11:57:48;3.50;1.00
816;DHT22;25928;51.062;13.752;2023-03-03T12:16:50;3.50;1.00
816;DHT22;25928;51.062;13.752;2023-03-03T12:38:20;3.70;1.00
816;DHT22;25928;51.062;13.752;2023-03-03T12:40:59;3.60;1.00
816;DHT22;25928;51.062;13.752;2023-03-03T12:48:40;4.00;1.00
816;DHT22;25928;51.062;13.752;2023-03-03T12:53:56;4.10;1.00
816;DHT22;25928;51.062;13.752;2023-03-03T12:56:47;4.00;1.00
816;DHT22;25928;51.062;13.752;2023-03-03T12:59:23;4.00;1.00
816;DHT22;25928;51.062;13.752;2023-03-03T13:08:16;3.90;1.00
816;DHT22;25928;51.062;13.752;2023-03-03T13:13:58;3.70;1.00
816;DHT22;25928;51.062;13.752;2023-03-03T13:16:32;3.90;1.00
816;DHT22;25928;51.062;13.752;2023-03-03T13:24:04;4.10;1.00
816;DHT22;25928;51.062;13.752;2023-03-03T13:26:36;4.00;1.00
816;DHT22;25928;51.062;13.752;2023-03-03T13:31:58;3.90;1.00
816;DHT22;25928;51.062;13.752;2023-03-03T13:37:31;3.70;1.00
816;DHT22;25928;51.062;13.752;2023-03-03T13:42:48;4.00;1.00
816;DHT22;25928;51.062;13.752;2023-03-03T13:46:17;4.20;1.00
816;DHT22;25928;51.062;13.752;2023-03-03T13:51:24;4.50;1.00
816;DHT22;25928;51.062;13.752;2023-03-03T13:54:47;4.50;1.00
816;DHT22;25928;51.062;13.752;2023-03-03T13:58:04;4.30;1.00
816;DHT22;25928;51.062;13.752;2023-03-03T14:06:23;3.90;1.00
816;DHT22;25928;51.062;13.752;2023-03-03T14:09:35;4.10;1.00
816;DHT22;25928;51.062;13.752;2023-03-03T14:12:37;3.90;1.00
816;DHT22;25928;51.062;13.752;2023-03-03T14:15:27;3.80;1.00
816;DHT22;25928;51.062;13.752;2023-03-03T14:20:55;3.70;1.00
816;DHT22;25928;51.062;13.752;2023-03-03T14:23:40;3.70;1.00
816;DHT22;25928;51.062;13.752;2023-03-03T14:26:10;3.80;1.00
816;DHT22;25928;51.062;13.752;2023-03-03T14:28:41;4.00;1.00
816;DHT22;25928;51.062;13.752;2023-03-03T14:31:25;4.00;1.00
816;DHT22;25928;51.062;13.752;2023-03-03T14:34:01;4.10;1.00
816;DHT22;25928;51.062;13.752;2023-03-03T14:36:32;4.10;1.00
816;DHT22;25928;51.062;13.752;2023-03-03T14:39:01;3.90;1.00
816;DHT22;25928;51.062;13.752;2023-03-03T14:41:40;3.90;1.00
816;DHT22;25928;51.062;13.752;2023-03-03T14:44:27;3.90;1.00
816;DHT22;25928;51.062;13.752;2023-03-03T14:47:22;3.90;1.00
816;DHT22;25928;51.062;13.752;2023-03-03T14:49:49;4.10;1.00
816;DHT22;25928;51.062;13.752;2023-03-03T14:54:43;4.40;1.00
816;DHT22;25928;51.062;13.752;2023-03-03T15:04:46;4.00;1.00
816;DHT22;25928;51.062;13.752;2023-03-03T15:07:32;4.00;1.00
816;DHT22;25928;51.062;13.752;2023-03-03T15:09:59;4.00;1.00
816;DHT22;25928;51.062;13.752;2023-03-03T15:12:35;4.10;1.00
816;DHT22;25928;51.062;13.752;2023-03-03T15:22:46;4.00;1.00
816;DHT22;25928;51.062;13.752;2023-03-03T15:25:23;4.00;1.00
816;DHT22;25928;51.062;13.752;2023-03-03T15:28:23;3.90;1.00
816;DHT22;25928;51.062;13.752;2023-03-03T15:41:42;3.90;1.00
816;DHT22;25928;51.062;13.752;2023-03-03T15:44:21;3.80;1.00
816;DHT22;25928;51.062;13.752;2023-03-03T15:52:44;3.70;1.00
816;DHT22;25928;51.062;13.752;2023-03-03T15:55:34;3.60;1.00
816;DHT22;25928;51.062;13.752;2023-03-03T16:03:26;3.40;1.00
816;DHT22;25928;51.062;13.752;2023-03-03T16:08:43;3.50;1.00
816;DHT22;25928;51.062;13.752;2023-03-03T16:30:26;3.30;1.00
816;DHT22;25928;51.062;13.752;2023-03-03T16:35:33;3.40;1.00
816;DHT22;25928;51.062;13.752;2023-03-03T16:38:05;3.10;1.00
816;DHT22;25928;51.062;13.752;2023-03-03T16:41:00;3.20;1.00
816;DHT22;25928;51.062;13.752;2023-03-03T16:46:10;2.90;1.00
816;DHT22;25928;51.062;13.752;2023-03-03T17:00:04;3.30;1.00
816;DHT22;25928;51.062;13.752;2023-03-03T17:10:29;3.10;1.00
816;DHT22;25928;51.062;13.752;2023-03-03T17:13:25;3.30;1.00
816;DHT22;25928;51.062;13.752;2023-03-03T17:19:19;3.40;1.00
816;DHT22;25928;51.062;13.752;2023-03-03T17:27:20;3.20;1.00
816;DHT22;25928;51.062;13.752;2023-03-03T17:40:36;3.40;1.00
816;DHT22;25928;51.062;13.752;2023-03-03T18:03:33;3.50;1.00
816;DHT22;25928;51.062;13.752;2023-03-03T18:14:53;3.50;1.00
816;DHT22;25928;51.062;13.752;2023-03-03T18:20:23;3.50;1.00
816;DHT22;25928;51.062;13.752;2023-03-03T18:22:53;3.50;1.00
816;DHT22;25928;51.062;13.752;2023-03-03T18:25:57;3.40;1.00
816;DHT22;25928;51.062;13.752;2023-03-03T18:28:42;3.40;1.00
816;DHT22;25928;51.062;13.752;2023-03-03T18:31:25;3.30;1.00
816;DHT22;25928;51.062;13.752;2023-03-03T18:34:08;3.40;1.00
816;DHT22;25928;51.062;13.752;2023-03-03T18:36:38;3.50;1.00
816;DHT22;25928;51.062;13.752;2023-03-03T18:39:05;3.50;1.00
816;DHT22;25928;51.062;13.752;2023-03-03T18:42:06;3.50;1.00
816;DHT22;25928;51.062;13.752;2023-03-03T18:44:32;3.60;1.00
816;DHT22;25928;51.062;13.752;2023-03-03T18:46:58;3.70;1.00
816;DHT22;25928;51.062;13.752;2023-03-03T18:52:28;3.80;1.00
816;DHT22;25928;51.062;13.752;2023-03-03T18:57:36;3.80;1.00
816;DHT22;25928;51.062;13.752;2023-03-03T19:03:32;3.90;1.00
816;DHT22;25928;51.062;13.752;2023-03-03T19:05:59;3.80;1.00
816;DHT22;25928;51.062;13.752;2023-03-03T19:08:30;4.00;1.00
816;DHT22;25928;51.062;13.752;2023-03-03T19:14:30;3.70;1.00
816;DHT22;25928;51.062;13.752;2023-03-03T19:16:58;3.80;1.00
816;DHT22;25928;51.062;13.752;2023-03-03T19:19:29;3.90;1.00
816;DHT22;25928;51.062;13.752;2023-03-03T19:30:59;3.70;1.00
816;DHT22;25928;51.062;13.752;2023-03-03T19:48:03;3.70;1.00
816;DHT22;25928;51.062;13.752;2023-03-03T19:53:15;3.60;1.00
816;DHT22;25928;51.062;13.752;2023-03-03T19:58:53;3.60;1.00
816;DHT22;25928;51.062;13.752;2023-03-03T20:01:58;3.60;1.00
816;DHT22;25928;51.062;13.752;2023-03-03T20:15:58;3.60;1.00
816;DHT22;25928;51.062;13.752;2023-03-03T20:24:37;3.60;1.00
816;DHT22;25928;51.062;13.752;2023-03-03T20:27:16;3.60;1.00
816;DHT22;25928;51.062;13.752;2023-03-03T20:29:46;3.60;1.00
816;DHT22;25928;51.062;13.752;2023-03-03T20:32:36;3.70;1.00
816;DHT22;25928;51.062;13.752;2023-03-03T20:45:50;3.70;1.00
816;DHT22;25928;51.062;13.752;2023-03-03T20:54:53;3.70;1.00
816;DHT22;25928;51.062;13.752;2023-03-03T21:00:19;3.70;1.00
816;DHT22;25928;51.062;13.752;2023-03-03T21:05:30;3.90;1.00
816;DHT22;25928;51.062;13.752;2023-03-03T21:08:01;3.90;1.00
816;DHT22;25928;51.062;13.752;2023-03-03T21:10:35;4.00;1.00
816;DHT22;25928;51.062;13.752;2023-03-03T21:13:26;3.90;1.00
816;DHT22;25928;51.062;13.752;2023-03-03T21:15:55;4.00;1.00
816;DHT22;25928;51.062;13.752;2023-03-03T21:18:24;4.00;1.00
816;DHT22;25928;51.062;13.752;2023-03-03T21:20:50;4.00;1.00
816;DHT22;25928;51.062;13.752;2023-03-03T21:23:16;3.90;1.00
816;DHT22;25928;51.062;13.752;2023-03-03T21:25:44;3.90;1.00
816;DHT22;25928;51.062;13.752;2023-03-03T21:28:29;3.80;1.00
816;DHT22;25928;51.062;13.752;2023-03-03T21:31:10;3.80;1.00
816;DHT22;25928;51.062;13.752;2023-03-03T21:44:41;3.80;1.00
816;DHT22;25928;51.062;13.752;2023-03-03T21:47:19;3.60;1.00
816;DHT22;25928;51.062;13.752;2023-03-03T21:49:47;3.60;1.00
816;DHT22;25928;51.062;13.752;2023-03-03T21:52:14;3.70;1.00
816;DHT22;25928;51.062;13.752;2023-03-03T21:54:44;3.70;1.00
816;DHT22;25928;51.062;13.752;2023-03-03T21:57:10;3.80;1.00
816;DHT22;25928;51.062;13.752;2023-03-03T21:59:36;3.80;1.00
816;DHT22;25928;51.062;13.752;2023-03-03T22:02:03;3.70;1.00
816;DHT22;25928;51.062;13.752;2023-03-03T22:04:28;3.90;1.00
816;DHT22;25928;51.062;13.752;2023-03-03T22:06:54;3.80;1.00
816;DHT22;25928;51.062;13.752;2023-03-03T22:09:20;3.60;1.00
816;DHT22;25928;51.062;13.752;2023-03-03T22:11:46;3.70;1.00
816;DHT22;25928;51.062;13.752;2023-03-03T22:14:12;3.70;1.00
816;DHT22;25928;51.062;13.752;2023-03-03T22:16:37;3.80;1.00
816;DHT22;25928;51.062;13.752;2023-03-03T22:19:03;3.80;1.00
816;DHT22;25928;51.062;13.752;2023-03-03T22:21:30;3.80;1.00
816;DHT22;25928;51.062;13.752;2023-03-03T22:23:56;3.80;1.00
816;DHT22;25928;51.062;13.752;2023-03-03T22:26:22;3.80;1.00
816;DHT22;25928;51.062;13.752;2023-03-03T22:28:48;3.70;1.00
816;DHT22;25928;51.062;13.752;2023-03-03T22:31:15;3.80;1.00
816;DHT22;25928;51.062;13.752;2023-03-03T22:33:41;3.70;1.00
816;DHT22;25928;51.062;13.752;2023-03-03T22:36:07;3.70;1.00
816;DHT22;25928;51.062;13.752;2023-03-03T22:38:33;3.80;1.00
816;DHT22;25928;51.062;13.752;2023-03-03T22:40:59;3.80;1.00
816;DHT22;25928;51.062;13.752;2023-03-03T22:43:25;3.70;1.00
816;DHT22;25928;51.062;13.752;2023-03-03T22:45:51;3.70;1.00
816;DHT22;25928;51.062;13.752;2023-03-03T22:48:17;3.70;1.00
816;DHT22;25928;51.062;13.752;2023-03-03T22:50:43;3.80;1.00
816;DHT22;25928;51.062;13.752;2023-03-03T22:53:10;3.90;1.00
816;DHT22;25928;51.062;13.752;2023-03-03T22:55:35;3.90;1.00
816;DHT22;25928;51.062;13.752;2023-03-03T22:58:02;3.90;1.00
816;DHT22;25928;51.062;13.752;2023-03-03T23:00:28;3.80;1.00
816;DHT22;25928;51.062;13.752;2023-03-03T23:02:54;3.80;1.00
816;DHT22;25928;51.062;13.752;2023-03-03T23:05:20;3.60;1.00
816;DHT22;25928;51.062;13.752;2023-03-03T23:07:45;3.70;1.00
816;DHT22;25928;51.062;13.752;2023-03-03T23:10:11;3.70;1.00
816;DHT22;25928;51.062;13.752;2023-03-03T23:12:37;3.60;1.00
816;DHT22;25928;51.062;13.752;2023-03-03T23:15:03;3.60;1.00
816;DHT22;25928;51.062;13.752;2023-03-03T23:17:30;3.80;1.00
816;DHT22;25928;51.062;13.752;2023-03-03T23:19:56;3.70;1.00
816;DHT22;25928;51.062;13.752;2023-03-03T23:22:22;3.70;1.00
816;DHT22;25928;51.062;13.752;2023-03-03T23:24:47;3.80;1.00
816;DHT22;25928;51.062;13.752;2023-03-03T23:27:13;3.80;1.00
816;DHT22;25928;51.062;13.752;2023-03-03T23:29:38;3.90;1.00
816;DHT22;25928;51.062;13.752;2023-03-03T23:32:04;3.80;1.00
816;DHT22;25928;51.062;13.752;2023-03-03T23:34:31;3.80;1.00
816;DHT22;25928;51.062;13.752;2023-03-03T23:36:57;3.80;1.00
816;DHT22;25928;51.062;13.752;2023-03-03T23:39:22;3.90;1.00
816;DHT22;25928;51.062;13.752;2023-03-03T23:41:48;3.90;1.00
816;DHT22;25928;51.062;13.752;2023-03-03T23:44:14;3.90;1.00
816;DHT22;25928;51.062;13.752;2023-03-03T23:46:39;3.90;1.00
816;DHT22;25928;51.062;13.752;2023-03-03T23:49:05;3.80;1.00
816;DHT22;25928;51.062;13.752;2023-03-03T23:51:32;3.80;1.00